sensor_id;sensor_type;location;lat;lon;timestamp;temperature;humidity
79020;DHT22;72857;44.740;37.770;2024-03-25T00:00:00;7.73;71.03
79020;DHT22;72857;44.740;37.770;2024-03-25T00:01:02;7.72;71.04
79020;DHT22;72857;44.740;37.770;2024-03-25T00:02:03;7.71;71.16
79020;DHT22;72857;44.740;37.770;2024-03-25T00:03:05;7.68;71.25
79020;DHT22;72857;44.740;37.770;2024-03-25T00:04:07;7.66;71.22
79020;DHT22;72857;44.740;37.770;2024-03-25T00:05:09;7.62;71.36
79020;DHT22;72857;44.740;37.770;2024-03-25T00:06:10;7.59;71.38
79020;DHT22;72857;44.740;37.770;2024-03-25T00:07:12;7.61;71.37
79020;DHT22;72857;44.740;37.770;2024-03-25T00:08:13;7.56;71.22
79020;DHT22;72857;44.740;37.770;2024-03-25T00:09:15;7.54;71.35
79020;DHT22;72857;44.740;37.770;2024-03-25T00:10:16;7.52;71.49
79020;DHT22;72857;44.740;37.770;2024-03-25T00:11:18;7.52;71.39
79020;DHT22;72857;44.740;37.770;2024-03-25T00:12:19;7.51;71.35
79020;DHT22;72857;44.740;37.770;2024-03-25T00:13:20;7.45;71.43
79020;DHT22;72857;44.740;37.770;2024-03-25T00:14:22;7.42;71.45
79020;DHT22;72857;44.740;37.770;2024-03-25T00:15:24;7.36;71.55
79020;DHT22;72857;44.740;37.770;2024-03-25T00:16:25;7.36;71.62
79020;DHT22;72857;44.740;37.770;2024-03-25T00:17:26;7.36;71.76
79020;DHT22;72857;44.740;37.770;2024-03-25T00:18:28;7.38;71.38
79020;DHT22;72857;44.740;37.770;2024-03-25T00:19:29;7.34;71.33
79020;DHT22;72857;44.740;37.770;2024-03-25T00:20:32;7.31;71.42
79020;DHT22;72857;44.740;37.770;2024-03-25T00:21:33;7.27;71.23
79020;DHT22;72857;44.740;37.770;2024-03-25T00:22:35;7.27;71.33
79020;DHT22;72857;44.740;37.770;2024-03-25T00:23:36;7.23;71.41
79020;DHT22;72857;44.740;37.770;2024-03-25T00:24:38;7.14;71.48
79020;DHT22;72857;44.740;37.770;2024-03-25T00:25:39;7.10;71.73
79020;DHT22;72857;44.740;37.770;2024-03-25T00:26:41;7.04;71.96
79020;DHT22;72857;44.740;37.770;2024-03-25T00:27:42;7.07;72.06
79020;DHT22;72857;44.740;37.770;2024-03-25T00:28:43;7.07;72.11
79020;DHT22;72857;44.740;37.770;2024-03-25T00:29:45;7.05;71.96
79020;DHT22;72857;44.740;37.770;2024-03-25T00:30:46;7.03;71.98
79020;DHT22;72857;44.740;37.770;2024-03-25T00:31:47;7.03;72.02
79020;DHT22;72857;44.740;37.770;2024-03-25T00:32:49;6.99;72.00
79020;DHT22;72857;44.740;37.770;2024-03-25T00:33:50;6.97;72.02
79020;DHT22;72857;44.740;37.770;2024-03-25T00:34:52;6.99;72.12
79020;DHT22;72857;44.740;37.770;2024-03-25T00:35:53;6.99;72.11
79020;DHT22;72857;44.740;37.770;2024-03-25T00:36:55;6.97;72.19
79020;DHT22;72857;44.740;37.770;2024-03-25T00:37:56;6.94;72.19
79020;DHT22;72857;44.740;37.770;2024-03-25T00:38:57;6.96;72.54
79020;DHT22;72857;44.740;37.770;2024-03-25T00:39:59;7.00;72.26
79020;DHT22;72857;44.740;37.770;2024-03-25T00:41:00;6.97;72.21
79020;DHT22;72857;44.740;37.770;2024-03-25T00:42:02;6.97;72.07
79020;DHT22;72857;44.740;37.770;2024-03-25T00:43:03;6.96;71.97
79020;DHT22;72857;44.740;37.770;2024-03-25T00:44:04;6.94;72.03
79020;DHT22;72857;44.740;37.770;2024-03-25T00:45:06;6.89;72.18
79020;DHT22;72857;44.740;37.770;2024-03-25T00:46:08;6.87;72.43
79020;DHT22;72857;44.740;37.770;2024-03-25T00:47:10;6.84;72.24
79020;DHT22;72857;44.740;37.770;2024-03-25T00:48:11;6.79;72.47
79020;DHT22;72857;44.740;37.770;2024-03-25T00:49:13;6.75;72.45
79020;DHT22;72857;44.740;37.770;2024-03-25T00:50:15;6.76;72.53
79020;DHT22;72857;44.740;37.770;2024-03-25T00:51:16;6.72;72.71
79020;DHT22;72857;44.740;37.770;2024-03-25T00:52:17;6.68;72.59
79020;DHT22;72857;44.740;37.770;2024-03-25T00:53:19;6.66;72.54
79020;DHT22;72857;44.740;37.770;2024-03-25T00:54:20;6.65;72.60
79020;DHT22;72857;44.740;37.770;2024-03-25T00:55:21;6.66;72.74
79020;DHT22;72857;44.740;37.770;2024-03-25T00:56:23;6.72;72.62
79020;DHT22;72857;44.740;37.770;2024-03-25T00:57:24;6.72;72.46
79020;DHT22;72857;44.740;37.770;2024-03-25T00:58:26;6.72;72.26
79020;DHT22;72857;44.740;37.770;2024-03-25T00:59:27;6.69;72.38
79020;DHT22;72857;44.740;37.770;2024-03-25T01:00:28;6.69;72.54
79020;DHT22;72857;44.740;37.770;2024-03-25T01:01:30;6.69;72.48
79020;DHT22;72857;44.740;37.770;2024-03-25T01:02:32;6.71;72.56
79020;DHT22;72857;44.740;37.770;2024-03-25T01:03:34;6.72;72.57
79020;DHT22;72857;44.740;37.770;2024-03-25T01:04:35;6.75;72.36
79020;DHT22;72857;44.740;37.770;2024-03-25T01:05:36;6.77;72.25
79020;DHT22;72857;44.740;37.770;2024-03-25T01:06:41;6.80;72.05
79020;DHT22;72857;44.740;37.770;2024-03-25T01:07:43;6.79;71.99
79020;DHT22;72857;44.740;37.770;2024-03-25T01:08:44;6.82;72.04
79020;DHT22;72857;44.740;37.770;2024-03-25T01:09:45;6.82;71.87
79020;DHT22;72857;44.740;37.770;2024-03-25T01:10:47;6.80;72.15
79020;DHT22;72857;44.740;37.770;2024-03-25T01:11:48;6.80;72.33
79020;DHT22;72857;44.740;37.770;2024-03-25T01:12:49;6.80;72.46
79020;DHT22;72857;44.740;37.770;2024-03-25T01:13:51;6.79;72.42
79020;DHT22;72857;44.740;37.770;2024-03-25T01:14:53;6.71;72.35
79020;DHT22;72857;44.740;37.770;2024-03-25T01:15:54;6.66;72.31
79020;DHT22;72857;44.740;37.770;2024-03-25T01:16:56;6.61;72.42
79020;DHT22;72857;44.740;37.770;2024-03-25T01:17:57;6.59;72.59
79020;DHT22;72857;44.740;37.770;2024-03-25T01:18:59;6.59;72.71
79020;DHT22;72857;44.740;37.770;2024-03-25T01:20:00;6.56;72.85
79020;DHT22;72857;44.740;37.770;2024-03-25T01:21:02;6.61;72.87
79020;DHT22;72857;44.740;37.770;2024-03-25T01:22:03;6.62;72.54
79020;DHT22;72857;44.740;37.770;2024-03-25T01:23:06;6.59;72.45
79020;DHT22;72857;44.740;37.770;2024-03-25T01:24:07;6.59;72.38
79020;DHT22;72857;44.740;37.770;2024-03-25T01:25:08;6.61;72.56
79020;DHT22;72857;44.740;37.770;2024-03-25T01:26:09;6.57;72.47
79020;DHT22;72857;44.740;37.770;2024-03-25T01:27:11;6.61;72.33
79020;DHT22;72857;44.740;37.770;2024-03-25T01:28:13;6.52;72.29
79020;DHT22;72857;44.740;37.770;2024-03-25T01:29:14;6.52;72.44
79020;DHT22;72857;44.740;37.770;2024-03-25T01:30:15;6.48;72.50
79020;DHT22;72857;44.740;37.770;2024-03-25T01:31:17;6.42;72.55
79020;DHT22;72857;44.740;37.770;2024-03-25T01:32:18;6.39;72.69
79020;DHT22;72857;44.740;37.770;2024-03-25T01:33:20;6.36;72.85
79020;DHT22;72857;44.740;37.770;2024-03-25T01:34:21;6.35;72.87
79020;DHT22;72857;44.740;37.770;2024-03-25T01:35:22;6.35;72.94
79020;DHT22;72857;44.740;37.770;2024-03-25T01:36:24;6.35;72.95
79020;DHT22;72857;44.740;37.770;2024-03-25T01:37:27;6.35;72.89
79020;DHT22;72857;44.740;37.770;2024-03-25T01:38:28;6.29;72.98
79020;DHT22;72857;44.740;37.770;2024-03-25T01:39:30;6.28;73.01
79020;DHT22;72857;44.740;37.770;2024-03-25T01:40:31;6.29;73.13
79020;DHT22;72857;44.740;37.770;2024-03-25T01:41:33;6.28;73.14
79020;DHT22;72857;44.740;37.770;2024-03-25T01:42:34;6.25;73.03
79020;DHT22;72857;44.740;37.770;2024-03-25T01:43:36;6.25;73.07
79020;DHT22;72857;44.740;37.770;2024-03-25T01:44:38;6.25;73.19
79020;DHT22;72857;44.740;37.770;2024-03-25T01:45:39;6.22;73.30
79020;DHT22;72857;44.740;37.770;2024-03-25T01:46:40;6.28;73.26
79020;DHT22;72857;44.740;37.770;2024-03-25T01:47:44;6.25;72.93
79020;DHT22;72857;44.740;37.770;2024-03-25T01:48:46;6.24;73.09
79020;DHT22;72857;44.740;37.770;2024-03-25T01:49:49;6.25;73.09
79020;DHT22;72857;44.740;37.770;2024-03-25T01:50:55;6.24;73.12
79020;DHT22;72857;44.740;37.770;2024-03-25T01:51:57;6.24;73.21
79020;DHT22;72857;44.740;37.770;2024-03-25T01:52:59;6.25;73.02
79020;DHT22;72857;44.740;37.770;2024-03-25T01:54:01;6.25;73.05
79020;DHT22;72857;44.740;37.770;2024-03-25T01:55:04;6.26;72.98
79020;DHT22;72857;44.740;37.770;2024-03-25T01:56:06;6.21;72.99
79020;DHT22;72857;44.740;37.770;2024-03-25T01:57:09;6.21;73.02
79020;DHT22;72857;44.740;37.770;2024-03-25T01:58:11;6.20;73.15
79020;DHT22;72857;44.740;37.770;2024-03-25T01:59:13;6.18;73.29
79020;DHT22;72857;44.740;37.770;2024-03-25T02:00:16;6.15;73.01
79020;DHT22;72857;44.740;37.770;2024-03-25T02:01:22;6.14;73.19
79020;DHT22;72857;44.740;37.770;2024-03-25T02:02:24;6.12;73.31
79020;DHT22;72857;44.740;37.770;2024-03-25T02:03:25;6.12;73.27
79020;DHT22;72857;44.740;37.770;2024-03-25T02:04:27;6.11;73.43
79020;DHT22;72857;44.740;37.770;2024-03-25T02:05:28;6.15;73.43
79020;DHT22;72857;44.740;37.770;2024-03-25T02:06:30;6.17;73.31
79020;DHT22;72857;44.740;37.770;2024-03-25T02:07:32;6.17;73.32
79020;DHT22;72857;44.740;37.770;2024-03-25T02:08:35;6.14;73.20
79020;DHT22;72857;44.740;37.770;2024-03-25T02:09:37;6.17;73.33
79020;DHT22;72857;44.740;37.770;2024-03-25T02:10:39;6.21;73.21
79020;DHT22;72857;44.740;37.770;2024-03-25T02:11:41;6.18;73.06
79020;DHT22;72857;44.740;37.770;2024-03-25T02:12:45;6.21;73.15
79020;DHT22;72857;44.740;37.770;2024-03-25T02:13:47;6.24;72.80
79020;DHT22;72857;44.740;37.770;2024-03-25T02:14:48;6.21;72.93
79020;DHT22;72857;44.740;37.770;2024-03-25T02:15:50;6.20;72.91
79020;DHT22;72857;44.740;37.770;2024-03-25T02:16:52;6.21;73.02
79020;DHT22;72857;44.740;37.770;2024-03-25T02:17:53;6.21;73.01
79020;DHT22;72857;44.740;37.770;2024-03-25T02:18:55;6.25;72.98
79020;DHT22;72857;44.740;37.770;2024-03-25T02:19:56;6.29;73.16
79020;DHT22;72857;44.740;37.770;2024-03-25T02:20:58;6.25;72.93
79020;DHT22;72857;44.740;37.770;2024-03-25T02:22:00;6.32;72.75
79020;DHT22;72857;44.740;37.770;2024-03-25T02:23:02;6.29;72.57
79020;DHT22;72857;44.740;37.770;2024-03-25T02:24:05;6.29;72.95
79020;DHT22;72857;44.740;37.770;2024-03-25T02:25:09;6.28;72.78
79020;DHT22;72857;44.740;37.770;2024-03-25T02:26:11;6.26;72.92
79020;DHT22;72857;44.740;37.770;2024-03-25T02:27:12;6.25;72.97
79020;DHT22;72857;44.740;37.770;2024-03-25T02:28:17;6.21;72.97
79020;DHT22;72857;44.740;37.770;2024-03-25T02:29:18;6.21;72.94
79020;DHT22;72857;44.740;37.770;2024-03-25T02:30:20;6.17;72.90
79020;DHT22;72857;44.740;37.770;2024-03-25T02:31:21;6.14;73.06
79020;DHT22;72857;44.740;37.770;2024-03-25T02:32:22;6.15;73.25
79020;DHT22;72857;44.740;37.770;2024-03-25T02:33:24;6.12;73.29
79020;DHT22;72857;44.740;37.770;2024-03-25T02:34:25;6.12;73.25
79020;DHT22;72857;44.740;37.770;2024-03-25T02:35:27;6.14;73.29
79020;DHT22;72857;44.740;37.770;2024-03-25T02:36:29;6.14;73.23
79020;DHT22;72857;44.740;37.770;2024-03-25T02:37:30;6.12;73.10
79020;DHT22;72857;44.740;37.770;2024-03-25T02:38:31;6.17;73.27
79020;DHT22;72857;44.740;37.770;2024-03-25T02:39:34;6.15;73.21
79020;DHT22;72857;44.740;37.770;2024-03-25T02:40:35;6.15;73.20
79020;DHT22;72857;44.740;37.770;2024-03-25T02:41:37;6.18;73.30
79020;DHT22;72857;44.740;37.770;2024-03-25T02:42:41;6.21;73.42
79020;DHT22;72857;44.740;37.770;2024-03-25T02:43:42;6.21;73.14
79020;DHT22;72857;44.740;37.770;2024-03-25T02:44:44;6.22;73.06
79020;DHT22;72857;44.740;37.770;2024-03-25T02:45:46;6.21;72.85
79020;DHT22;72857;44.740;37.770;2024-03-25T02:46:47;6.18;73.00
79020;DHT22;72857;44.740;37.770;2024-03-25T02:47:50;6.17;72.89
79020;DHT22;72857;44.740;37.770;2024-03-25T02:48:51;6.20;73.04
79020;DHT22;72857;44.740;37.770;2024-03-25T02:49:53;6.20;72.78
79020;DHT22;72857;44.740;37.770;2024-03-25T02:50:54;6.18;72.71
79020;DHT22;72857;44.740;37.770;2024-03-25T02:51:56;6.14;72.61
79020;DHT22;72857;44.740;37.770;2024-03-25T02:52:57;6.10;72.76
79020;DHT22;72857;44.740;37.770;2024-03-25T02:53:59;6.10;72.65
79020;DHT22;72857;44.740;37.770;2024-03-25T02:55:00;6.10;72.71
79020;DHT22;72857;44.740;37.770;2024-03-25T02:56:02;6.08;72.74
79020;DHT22;72857;44.740;37.770;2024-03-25T02:57:04;6.12;72.88
79020;DHT22;72857;44.740;37.770;2024-03-25T02:58:05;6.12;72.76
79020;DHT22;72857;44.740;37.770;2024-03-25T02:59:07;6.14;72.55
79020;DHT22;72857;44.740;37.770;2024-03-25T03:00:09;6.18;72.70
79020;DHT22;72857;44.740;37.770;2024-03-25T03:01:11;6.21;72.64
79020;DHT22;72857;44.740;37.770;2024-03-25T03:02:12;6.24;72.67
79020;DHT22;72857;44.740;37.770;2024-03-25T03:03:15;6.22;72.46
79020;DHT22;72857;44.740;37.770;2024-03-25T03:04:16;6.21;72.37
79020;DHT22;72857;44.740;37.770;2024-03-25T03:05:19;6.21;72.36
79020;DHT22;72857;44.740;37.770;2024-03-25T03:06:20;6.18;72.34
79020;DHT22;72857;44.740;37.770;2024-03-25T03:07:21;6.18;72.41
79020;DHT22;72857;44.740;37.770;2024-03-25T03:08:23;6.17;72.61
79020;DHT22;72857;44.740;37.770;2024-03-25T03:09:24;6.18;72.59
79020;DHT22;72857;44.740;37.770;2024-03-25T03:10:26;6.17;72.50
79020;DHT22;72857;44.740;37.770;2024-03-25T03:11:27;6.12;72.36
79020;DHT22;72857;44.740;37.770;2024-03-25T03:12:29;6.12;72.31
79020;DHT22;72857;44.740;37.770;2024-03-25T03:13:30;6.11;72.39
79020;DHT22;72857;44.740;37.770;2024-03-25T03:14:31;6.18;72.28
79020;DHT22;72857;44.740;37.770;2024-03-25T03:15:33;6.17;71.99
79020;DHT22;72857;44.740;37.770;2024-03-25T03:16:34;6.15;71.98
79020;DHT22;72857;44.740;37.770;2024-03-25T03:17:35;6.11;72.16
79020;DHT22;72857;44.740;37.770;2024-03-25T03:18:37;6.08;72.32
79020;DHT22;72857;44.740;37.770;2024-03-25T03:19:39;6.11;72.46
79020;DHT22;72857;44.740;37.770;2024-03-25T03:20:40;6.10;72.23
79020;DHT22;72857;44.740;37.770;2024-03-25T03:21:42;6.07;72.41
79020;DHT22;72857;44.740;37.770;2024-03-25T03:22:44;6.02;72.51
79020;DHT22;72857;44.740;37.770;2024-03-25T03:23:45;6.05;72.48
79020;DHT22;72857;44.740;37.770;2024-03-25T03:24:47;6.07;72.52
79020;DHT22;72857;44.740;37.770;2024-03-25T03:25:50;6.11;72.32
79020;DHT22;72857;44.740;37.770;2024-03-25T03:26:51;6.18;72.23
79020;DHT22;72857;44.740;37.770;2024-03-25T03:27:53;6.20;72.04
79020;DHT22;72857;44.740;37.770;2024-03-25T03:28:54;6.24;71.80
79020;DHT22;72857;44.740;37.770;2024-03-25T03:29:56;6.24;71.86
79020;DHT22;72857;44.740;37.770;2024-03-25T03:30:57;6.25;71.60
79020;DHT22;72857;44.740;37.770;2024-03-25T03:31:58;6.26;71.70
79020;DHT22;72857;44.740;37.770;2024-03-25T03:33:01;6.24;71.44
79020;DHT22;72857;44.740;37.770;2024-03-25T03:34:02;6.21;71.58
79020;DHT22;72857;44.740;37.770;2024-03-25T03:35:04;6.20;71.45
79020;DHT22;72857;44.740;37.770;2024-03-25T03:36:06;6.15;71.49
79020;DHT22;72857;44.740;37.770;2024-03-25T03:37:07;6.14;71.52
79020;DHT22;72857;44.740;37.770;2024-03-25T03:38:09;6.11;71.65
79020;DHT22;72857;44.740;37.770;2024-03-25T03:39:10;6.15;71.69
79020;DHT22;72857;44.740;37.770;2024-03-25T03:40:11;6.17;71.64
79020;DHT22;72857;44.740;37.770;2024-03-25T03:41:13;6.17;71.57
79020;DHT22;72857;44.740;37.770;2024-03-25T03:42:14;6.20;71.69
79020;DHT22;72857;44.740;37.770;2024-03-25T03:43:16;6.18;71.50
79020;DHT22;72857;44.740;37.770;2024-03-25T03:44:17;6.15;71.58
79020;DHT22;72857;44.740;37.770;2024-03-25T03:45:19;6.18;71.68
79020;DHT22;72857;44.740;37.770;2024-03-25T03:46:20;6.18;71.66
79020;DHT22;72857;44.740;37.770;2024-03-25T03:47:21;6.18;71.49
79020;DHT22;72857;44.740;37.770;2024-03-25T03:48:23;6.18;71.48
79020;DHT22;72857;44.740;37.770;2024-03-25T03:49:24;6.17;71.59
79020;DHT22;72857;44.740;37.770;2024-03-25T03:50:25;6.18;71.62
79020;DHT22;72857;44.740;37.770;2024-03-25T03:51:27;6.17;71.51
79020;DHT22;72857;44.740;37.770;2024-03-25T03:52:28;6.22;71.60
79020;DHT22;72857;44.740;37.770;2024-03-25T03:53:29;6.21;71.48
79020;DHT22;72857;44.740;37.770;2024-03-25T03:54:32;6.20;71.43
79020;DHT22;72857;44.740;37.770;2024-03-25T03:55:33;6.18;71.50
79020;DHT22;72857;44.740;37.770;2024-03-25T03:56:34;6.20;71.46
79020;DHT22;72857;44.740;37.770;2024-03-25T03:57:36;6.24;71.40
79020;DHT22;72857;44.740;37.770;2024-03-25T03:58:37;6.25;71.45
79020;DHT22;72857;44.740;37.770;2024-03-25T03:59:39;6.26;71.22
79020;DHT22;72857;44.740;37.770;2024-03-25T04:00:40;6.26;71.08
79020;DHT22;72857;44.740;37.770;2024-03-25T04:01:41;6.33;71.12
79020;DHT22;72857;44.740;37.770;2024-03-25T04:02:43;6.31;71.07
79020;DHT22;72857;44.740;37.770;2024-03-25T04:03:44;6.38;71.17
79020;DHT22;72857;44.740;37.770;2024-03-25T04:04:46;6.41;70.64
79020;DHT22;72857;44.740;37.770;2024-03-25T04:05:47;6.42;70.45
79020;DHT22;72857;44.740;37.770;2024-03-25T04:06:49;6.52;70.33
79020;DHT22;72857;44.740;37.770;2024-03-25T04:07:50;6.56;70.33
79020;DHT22;72857;44.740;37.770;2024-03-25T04:08:51;6.63;70.22
79020;DHT22;72857;44.740;37.770;2024-03-25T04:09:53;6.65;69.95
79020;DHT22;72857;44.740;37.770;2024-03-25T04:10:55;6.69;69.80
79020;DHT22;72857;44.740;37.770;2024-03-25T04:11:56;6.66;69.79
79020;DHT22;72857;44.740;37.770;2024-03-25T04:12:57;6.57;69.85
79020;DHT22;72857;44.740;37.770;2024-03-25T04:13:59;6.61;70.12
79020;DHT22;72857;44.740;37.770;2024-03-25T04:15:00;6.59;70.11
79020;DHT22;72857;44.740;37.770;2024-03-25T04:16:05;6.62;70.26
79020;DHT22;72857;44.740;37.770;2024-03-25T04:17:07;6.65;69.92
79020;DHT22;72857;44.740;37.770;2024-03-25T04:18:08;6.65;70.11
79020;DHT22;72857;44.740;37.770;2024-03-25T04:19:10;6.68;69.63
79020;DHT22;72857;44.740;37.770;2024-03-25T04:20:12;6.73;69.91
79020;DHT22;72857;44.740;37.770;2024-03-25T04:21:13;6.76;69.69
79020;DHT22;72857;44.740;37.770;2024-03-25T04:22:15;6.80;69.73
79020;DHT22;72857;44.740;37.770;2024-03-25T04:23:16;6.84;69.68
79020;DHT22;72857;44.740;37.770;2024-03-25T04:24:18;6.93;69.61
79020;DHT22;72857;44.740;37.770;2024-03-25T04:25:19;6.94;69.33
79020;DHT22;72857;44.740;37.770;2024-03-25T04:26:21;7.00;69.26
79020;DHT22;72857;44.740;37.770;2024-03-25T04:27:22;7.05;69.21
79020;DHT22;72857;44.740;37.770;2024-03-25T04:28:25;7.15;69.01
79020;DHT22;72857;44.740;37.770;2024-03-25T04:29:28;7.20;68.80
79020;DHT22;72857;44.740;37.770;2024-03-25T04:30:30;7.25;68.63
79020;DHT22;72857;44.740;37.770;2024-03-25T04:31:31;7.25;68.37
79020;DHT22;72857;44.740;37.770;2024-03-25T04:32:33;7.23;68.63
79020;DHT22;72857;44.740;37.770;2024-03-25T04:33:34;7.20;68.68
79020;DHT22;72857;44.740;37.770;2024-03-25T04:34:36;7.20;68.78
79020;DHT22;72857;44.740;37.770;2024-03-25T04:35:37;7.21;69.30
79020;DHT22;72857;44.740;37.770;2024-03-25T04:36:38;7.23;69.08
79020;DHT22;72857;44.740;37.770;2024-03-25T04:37:40;7.23;68.68
79020;DHT22;72857;44.740;37.770;2024-03-25T04:38:42;7.21;68.94
79020;DHT22;72857;44.740;37.770;2024-03-25T04:39:44;7.21;68.71
79020;DHT22;72857;44.740;37.770;2024-03-25T04:40:53;7.24;68.73
79020;DHT22;72857;44.740;37.770;2024-03-25T04:41:55;7.27;68.61
79020;DHT22;72857;44.740;37.770;2024-03-25T04:42:57;7.30;68.63
79020;DHT22;72857;44.740;37.770;2024-03-25T04:43:59;7.31;68.58
79020;DHT22;72857;44.740;37.770;2024-03-25T04:45:00;7.31;68.82
79020;DHT22;72857;44.740;37.770;2024-03-25T04:46:02;7.31;68.73
79020;DHT22;72857;44.740;37.770;2024-03-25T04:47:04;7.38;68.62
79020;DHT22;72857;44.740;37.770;2024-03-25T04:48:06;7.45;68.77
79020;DHT22;72857;44.740;37.770;2024-03-25T04:49:08;7.50;68.45
79020;DHT22;72857;44.740;37.770;2024-03-25T04:50:10;7.56;68.34
79020;DHT22;72857;44.740;37.770;2024-03-25T04:51:11;7.64;68.13
79020;DHT22;72857;44.740;37.770;2024-03-25T04:52:14;7.75;67.96
79020;DHT22;72857;44.740;37.770;2024-03-25T04:53:19;7.82;67.74
79020;DHT22;72857;44.740;37.770;2024-03-25T04:54:20;7.89;67.35
79020;DHT22;72857;44.740;37.770;2024-03-25T04:55:22;7.97;66.94
79020;DHT22;72857;44.740;37.770;2024-03-25T04:56:23;8.04;66.70
79020;DHT22;72857;44.740;37.770;2024-03-25T04:57:25;8.10;65.90
79020;DHT22;72857;44.740;37.770;2024-03-25T04:58:26;8.17;65.87
79020;DHT22;72857;44.740;37.770;2024-03-25T04:59:27;8.24;66.17
79020;DHT22;72857;44.740;37.770;2024-03-25T05:00:29;8.29;65.80
79020;DHT22;72857;44.740;37.770;2024-03-25T05:01:30;8.30;65.92
79020;DHT22;72857;44.740;37.770;2024-03-25T05:02:32;8.36;65.93
79020;DHT22;72857;44.740;37.770;2024-03-25T05:03:33;8.41;65.15
79020;DHT22;72857;44.740;37.770;2024-03-25T05:04:35;8.50;65.25
79020;DHT22;72857;44.740;37.770;2024-03-25T05:05:36;8.55;65.44
79020;DHT22;72857;44.740;37.770;2024-03-25T05:06:38;8.61;65.38
79020;DHT22;72857;44.740;37.770;2024-03-25T05:07:39;8.61;65.33
79020;DHT22;72857;44.740;37.770;2024-03-25T05:08:41;8.63;65.58
79020;DHT22;72857;44.740;37.770;2024-03-25T05:09:42;8.64;65.30
79020;DHT22;72857;44.740;37.770;2024-03-25T05:10:44;8.65;64.52
79020;DHT22;72857;44.740;37.770;2024-03-25T05:11:46;8.67;63.68
79020;DHT22;72857;44.740;37.770;2024-03-25T05:12:47;8.71;64.08
79020;DHT22;72857;44.740;37.770;2024-03-25T05:13:50;8.74;64.41
79020;DHT22;72857;44.740;37.770;2024-03-25T05:14:52;8.76;64.17
79020;DHT22;72857;44.740;37.770;2024-03-25T05:15:53;8.84;64.84
79020;DHT22;72857;44.740;37.770;2024-03-25T05:16:54;8.89;64.23
79020;DHT22;72857;44.740;37.770;2024-03-25T05:17:57;9.04;64.26
79020;DHT22;72857;44.740;37.770;2024-03-25T05:18:58;9.11;63.78
79020;DHT22;72857;44.740;37.770;2024-03-25T05:20:00;9.18;62.78
79020;DHT22;72857;44.740;37.770;2024-03-25T05:21:01;9.23;61.84
79020;DHT22;72857;44.740;37.770;2024-03-25T05:22:03;9.30;61.70
79020;DHT22;72857;44.740;37.770;2024-03-25T05:23:04;9.37;61.66
79020;DHT22;72857;44.740;37.770;2024-03-25T05:24:06;9.43;61.47
79020;DHT22;72857;44.740;37.770;2024-03-25T05:25:07;9.54;61.05
79020;DHT22;72857;44.740;37.770;2024-03-25T05:26:09;9.63;59.98
79020;DHT22;72857;44.740;37.770;2024-03-25T05:27:10;9.70;60.10
79020;DHT22;72857;44.740;37.770;2024-03-25T05:28:12;9.77;60.46
79020;DHT22;72857;44.740;37.770;2024-03-25T05:29:14;9.84;60.19
79020;DHT22;72857;44.740;37.770;2024-03-25T05:30:16;9.93;60.64
79020;DHT22;72857;44.740;37.770;2024-03-25T05:31:17;10.04;60.56
79020;DHT22;72857;44.740;37.770;2024-03-25T05:32:18;10.11;59.99
79020;DHT22;72857;44.740;37.770;2024-03-25T05:33:22;10.21;59.58
79020;DHT22;72857;44.740;37.770;2024-03-25T05:34:25;10.32;59.92
79020;DHT22;72857;44.740;37.770;2024-03-25T05:35:27;10.42;59.40
79020;DHT22;72857;44.740;37.770;2024-03-25T05:36:29;10.52;58.44
79020;DHT22;72857;44.740;37.770;2024-03-25T05:37:30;10.59;58.21
79020;DHT22;72857;44.740;37.770;2024-03-25T05:38:34;10.67;58.00
79020;DHT22;72857;44.740;37.770;2024-03-25T05:39:35;10.76;57.64
79020;DHT22;72857;44.740;37.770;2024-03-25T05:40:37;10.81;57.10
79020;DHT22;72857;44.740;37.770;2024-03-25T05:41:39;10.93;57.40
79020;DHT22;72857;44.740;37.770;2024-03-25T05:42:40;10.96;56.68
79020;DHT22;72857;44.740;37.770;2024-03-25T05:43:42;11.00;55.88
79020;DHT22;72857;44.740;37.770;2024-03-25T05:44:45;11.07;55.98
79020;DHT22;72857;44.740;37.770;2024-03-25T05:45:51;11.13;56.07
79020;DHT22;72857;44.740;37.770;2024-03-25T05:46:52;11.18;55.81
79020;DHT22;72857;44.740;37.770;2024-03-25T05:47:54;11.23;55.70
79020;DHT22;72857;44.740;37.770;2024-03-25T05:48:55;11.31;55.81
79020;DHT22;72857;44.740;37.770;2024-03-25T05:49:56;11.37;55.59
79020;DHT22;72857;44.740;37.770;2024-03-25T05:52:03;11.47;55.22
79020;DHT22;72857;44.740;37.770;2024-03-25T05:53:04;11.51;55.00
79020;DHT22;72857;44.740;37.770;2024-03-25T05:54:06;11.58;54.75
79020;DHT22;72857;44.740;37.770;2024-03-25T05:55:07;11.64;54.18
79020;DHT22;72857;44.740;37.770;2024-03-25T05:56:10;11.65;54.06
79020;DHT22;72857;44.740;37.770;2024-03-25T05:57:12;11.72;54.81
79020;DHT22;72857;44.740;37.770;2024-03-25T05:58:14;11.81;54.19
79020;DHT22;72857;44.740;37.770;2024-03-25T05:59:16;11.85;53.76
79020;DHT22;72857;44.740;37.770;2024-03-25T06:00:17;11.92;53.62
79020;DHT22;72857;44.740;37.770;2024-03-25T06:01:22;11.96;52.66
79020;DHT22;72857;44.740;37.770;2024-03-25T06:02:23;12.05;51.69
79020;DHT22;72857;44.740;37.770;2024-03-25T06:03:25;12.10;50.29
79020;DHT22;72857;44.740;37.770;2024-03-25T06:04:26;12.15;50.48
79020;DHT22;72857;44.740;37.770;2024-03-25T06:05:27;12.23;50.41
79020;DHT22;72857;44.740;37.770;2024-03-25T06:06:29;12.30;49.57
79020;DHT22;72857;44.740;37.770;2024-03-25T06:07:30;12.36;49.44
79020;DHT22;72857;44.740;37.770;2024-03-25T06:08:32;12.43;49.24
79020;DHT22;72857;44.740;37.770;2024-03-25T06:09:33;12.46;49.59
79020;DHT22;72857;44.740;37.770;2024-03-25T06:10:36;12.54;49.00
79020;DHT22;72857;44.740;37.770;2024-03-25T06:11:38;12.58;49.09
79020;DHT22;72857;44.740;37.770;2024-03-25T06:12:39;12.60;48.98
79020;DHT22;72857;44.740;37.770;2024-03-25T06:13:41;12.67;48.88
79020;DHT22;72857;44.740;37.770;2024-03-25T06:14:43;12.73;47.62
79020;DHT22;72857;44.740;37.770;2024-03-25T06:15:46;12.74;47.50
79020;DHT22;72857;44.740;37.770;2024-03-25T06:16:47;12.81;47.81
79020;DHT22;72857;44.740;37.770;2024-03-25T06:17:49;12.84;47.93
79020;DHT22;72857;44.740;37.770;2024-03-25T06:18:50;12.91;47.55
79020;DHT22;72857;44.740;37.770;2024-03-25T06:19:52;12.91;46.52
79020;DHT22;72857;44.740;37.770;2024-03-25T06:20:54;12.89;46.80
79020;DHT22;72857;44.740;37.770;2024-03-25T06:21:55;12.85;46.90
79020;DHT22;72857;44.740;37.770;2024-03-25T06:22:56;12.87;46.40
79020;DHT22;72857;44.740;37.770;2024-03-25T06:23:58;12.89;46.66
79020;DHT22;72857;44.740;37.770;2024-03-25T06:24:59;12.91;46.37
79020;DHT22;72857;44.740;37.770;2024-03-25T06:26:01;12.92;46.75
79020;DHT22;72857;44.740;37.770;2024-03-25T06:27:02;12.92;45.49
79020;DHT22;72857;44.740;37.770;2024-03-25T06:28:04;12.94;45.49
79020;DHT22;72857;44.740;37.770;2024-03-25T06:29:06;12.98;46.32